Flight Briefing for CMB844

Departure Arrival
Paya Lebar Airport (WSAP)
Click to view FAA NOTAMS
Diego Garcia (FJDG)
Click to view FAA NOTAMS
Departure Time Arrival Time
N/A N/A
Aircraft Distance
B757-200SF 1958nm
Departure METAR Arrival METAR
WSAP 200900Z 06011KT 9999 FEW018TCU SCT020 33/22 Q1007 FJDG 200855Z 26005KT 9999 FEW023 FEW050 BKN100 33/27 A2983 RMK SLP098 8/870 T03300268 57020
Suggested Route
ASUNA R469 PKU N633 PIBED R212 GUDUG


View recent IFR Routes data
Notes
USTRANSCOM CONTRACT FLIGHT

Charts and Procedures

Charts for WSAP
No chart available
Charts for FJDG
No chart available

Windy.com Weather Map